Hackettstown, NJ

11:26 AM EDT on May 05, 2015 (GMT -0400)
Somerset | | Change Station
CLOSE
Current Station
Airport
Location: Somerville,
Elevation: 105 ft
Nearby Weather Stations

Elev 105 ft 40.62 °N, 74.67 °W | Updated 33 minutes ago

Partly Cloudy
Partly Cloudy
78 °F
Feels Like 78 °F
N
0
Wind Variable Wind from North

Today
High -- | Low -- °F
--% Chance of Precip.
Yesterday
High -- | Low -- °F
Precip. -- in
5:53 AM 7:59 PM
Full, 98% visible
Pressure 30.21 in
Visibility 10.0 miles
Clouds Clear
Dew Point 55 °F
Humidity 45%
Rainfall 0.00 in
Snow Depth Not available.
UV 8 out of 12
Pollen 9.20 out of 12
Air Quality Not available.
Flu Activity Local Activity
METAR KSMQ 051453Z AUTO 00000KT 10SM CLR 26/13 A3021 RMK AO2 SLP228 T02560128 51004 TSNO

More Conditions Fewer Conditions

Pressure 30.21 in
Visibility 10.0 miles
Clouds Clear
Dew Point 55 °F
Humidity 45%
Rainfall 0.00 in
Snow Depth Not available.
UV 8 out of 12
Pollen 9.20 out of 12
Air Quality Not available.
Flu Activity Local Activity
METAR KSMQ 051453Z AUTO 00000KT 10SM CLR 26/13 A3021 RMK AO2 SLP228 T02560128 51004 TSNO

More Conditions Fewer Conditions

10-Day Weather Forecast

Almanac

Astronomy

May. 05, 2015 Rise Set
Actual Time
Civil Twilight
Nautical Twilight
Astronomical Twilight
Moon
Length of Visible Light
Length of Day
Tomorrow will be .
, % of the Moon is Illuminated

Today's Extremes

State Highs State Lows

Community

WunderPhotos

Upload Photos

1,818,917 photos uploaded!

WunderBlogs® & News

Nearby

Air Quality

  Air Quality AQ Index Pollutant
Not available.

Snow Depth

Station Depth Elevation

Earthquake Activity

City Distance Mag. Time & Date
Minimum magnitude displayed is 2.5.

Coastal Water Temperatures

Place Temperature

Stations

Nearby Weather Stations

Station Location Temp. Windchill Dew Point Humidity Wind Precip. Elev Updated Type